Darstellungsparameter: Aktuell verwendete Einstellungen:
Skalierung der Graphiken ... ?
xyx+y,   Skalierungsfaktor:      Skalierung: Modus: x, Faktor: 1
Darstellungszeitraum ... ?
Vom - - bis: - -   Zeitraum: 26.02.2016 - 26.02.2016
Min/Max/Avg-Anzeige ... ?
Zeige MMA aktuell
Zeige MMA Monat
Zeige MMA alles
Zeige --A aktuell
Zeige --A Monat
Zeige --A alles
Keine MMA-Anzeige
MMA:
Keine MMA-Graphiken
MMA-Basis: 26.02.2016 - 26.02.2016
Quicknavigation für Darstellung... ?
Tage:      1T, 2T, 3T, 5T -1T -2T -3T -5T +1T +2T +3T +5T
Wochen: 1W, 2W, 3W -1W -2W -3W +1W +2W +3W
Monate: 1M, 3M, 6M -1M -3M -6M +1M +3M +6M
Jahre:    1J, 3J, 5J, 10J -1J -3J -5J -10J +1J +3J +5J +10J
Nutze für die Darstellung ... ?
Originaldaten oder Mittelwerte auf ...
Stundenbasis Tagesbasis Wochenbasis
Monatsbasis Jahresbasis      Datenbasis: Original-Daten
Darstellen als:
Statistik (Auto) Statistik J:M      Darstellung:
Zur Graphik,    zurück zur Übersicht aller Sensoren.
 
Tabellarische Datenbersicht: ?
 
Sensor: Nr:Datum:Temp:Feuchte:Taupunkt:
Aussen-T/F 1 26-02-2016 00:00:00 1.3 C 92 % 0.15 C
2 26-02-2016 00:05:00 1.3 C 93 % 0.3 C
3 26-02-2016 00:10:00 1.3 C 93 % 0.3 C
4 26-02-2016 00:15:00 1.4 C 93 % 0.4 C
5 26-02-2016 00:20:00 1.4 C 93 % 0.4 C
6 26-02-2016 00:25:00 1.4 C 93 % 0.4 C
7 26-02-2016 00:30:00 1.4 C 92 % 0.25 C
8 26-02-2016 00:35:00 1.4 C 92 % 0.25 C
9 26-02-2016 00:40:00 1.4 C 92 % 0.25 C
10 26-02-2016 00:45:00 1.5 C 92 % 0.35 C
11 26-02-2016 00:50:00 1.5 C 92 % 0.35 C
12 26-02-2016 00:55:00 1.5 C 92 % 0.35 C
13 26-02-2016 01:00:00 1.5 C 92 % 0.35 C
14 26-02-2016 01:05:00 1.5 C 92 % 0.35 C
15 26-02-2016 01:10:00 1.4 C 92 % 0.25 C
16 26-02-2016 01:15:00 1.4 C 92 % 0.25 C
17 26-02-2016 01:20:00 1.3 C 92 % 0.15 C
18 26-02-2016 01:25:00 1.3 C 92 % 0.15 C
19 26-02-2016 01:30:00 1.3 C 92 % 0.15 C
20 26-02-2016 01:35:00 1.2 C 92 % 0.05 C
21 26-02-2016 01:40:00 1.2 C 92 % 0.05 C
22 26-02-2016 01:45:00 1.2 C 92 % 0.05 C
23 26-02-2016 01:50:00 1.1 C 92 % -0.05 C
24 26-02-2016 01:55:00 1.1 C 92 % -0.05 C
25 26-02-2016 02:00:00 1.1 C 93 % 0.1 C
Sensor: Nr:Datum:Temp:Feuchte:Taupunkt:
Aussen-T/F 26 26-02-2016 02:05:00 1.1 C 93 % 0.1 C
27 26-02-2016 02:10:00 1.1 C 93 % 0.1 C
28 26-02-2016 02:15:00 1.1 C 92 % -0.05 C
29 26-02-2016 02:20:00 1.1 C 93 % 0.1 C
30 26-02-2016 02:25:00 1.1 C 92 % -0.05 C
31 26-02-2016 02:30:00 1.1 C 92 % -0.05 C
32 26-02-2016 02:35:00 1.1 C 92 % -0.05 C
33 26-02-2016 02:40:00 1.1 C 93 % 0.1 C
34 26-02-2016 02:45:00 1.2 C 93 % 0.2 C
35 26-02-2016 02:50:00 1.2 C 93 % 0.2 C
36 26-02-2016 02:55:00 1.2 C 93 % 0.2 C
37 26-02-2016 03:00:00 1.2 C 93 % 0.2 C
38 26-02-2016 03:05:00 1.2 C 93 % 0.2 C
39 26-02-2016 03:10:00 1.2 C 93 % 0.2 C
40 26-02-2016 03:15:00 1.3 C 93 % 0.3 C
41 26-02-2016 03:20:00 1.3 C 93 % 0.3 C
42 26-02-2016 03:25:00 1.3 C 93 % 0.3 C
43 26-02-2016 03:30:00 1.3 C 93 % 0.3 C
44 26-02-2016 03:35:00 1.3 C 93 % 0.3 C
45 26-02-2016 03:40:00 1.3 C 93 % 0.3 C
46 26-02-2016 03:45:00 1.3 C 93 % 0.3 C
47 26-02-2016 03:50:00 1.3 C 93 % 0.3 C
48 26-02-2016 03:55:00 1.3 C 93 % 0.3 C
49 26-02-2016 04:00:00 1.4 C 93 % 0.4 C
50 26-02-2016 04:05:00 1.4 C 93 % 0.4 C
Sensor: Nr:Datum:Temp:Feuchte:Taupunkt:
Aussen-T/F 51 26-02-2016 04:10:00 1.4 C 93 % 0.4 C
52 26-02-2016 04:15:00 1.4 C 93 % 0.4 C
53 26-02-2016 04:20:00 1.3 C 93 % 0.3 C
54 26-02-2016 04:25:00 1.3 C 93 % 0.3 C
55 26-02-2016 04:30:00 1.2 C 93 % 0.2 C
56 26-02-2016 04:35:00 1.2 C 93 % 0.2 C
57 26-02-2016 04:40:00 1.1 C 93 % 0.1 C
58 26-02-2016 04:45:00 0.9 C 93 % -0.1 C
59 26-02-2016 04:50:00 0.8 C 93 % -0.2 C
60 26-02-2016 04:55:00 0.7 C 93 % -0.3 C
61 26-02-2016 05:00:00 0.7 C 93 % -0.3 C
62 26-02-2016 05:05:00 0.6 C 93 % -0.4 C
63 26-02-2016 05:10:00 0.5 C 93 % -0.5 C
64 26-02-2016 05:15:00 0.4 C 93 % -0.6 C
65 26-02-2016 05:20:00 0.3 C 93 % -0.7 C
66 26-02-2016 05:25:00 0.2 C 93 % -0.79 C
67 26-02-2016 05:30:00 0.2 C 93 % -0.79 C
68 26-02-2016 05:35:00 0.1 C 93 % -0.89 C
69 26-02-2016 05:40:00 0.1 C 93 % -0.89 C
70 26-02-2016 05:45:00 0 C 93 % -0.99 C
71 26-02-2016 05:50:00 -0.1 C 93 % -1.09 C
72 26-02-2016 05:55:00 -0.1 C 93 % -1.09 C
73 26-02-2016 06:00:00 -0.1 C 93 % -1.09 C
74 26-02-2016 06:05:00 -0.1 C 94 % -0.95 C
75 26-02-2016 06:10:00 0 C 94 % -0.85 C
Sensor: Nr:Datum:Temp:Feuchte:Taupunkt:
Aussen-T/F 76 26-02-2016 06:15:00 0.1 C 94 % -0.75 C
77 26-02-2016 06:20:00 0.1 C 94 % -0.75 C
78 26-02-2016 06:25:00 0.1 C 94 % -0.75 C
79 26-02-2016 06:30:00 0.1 C 94 % -0.75 C
80 26-02-2016 06:35:00 0.2 C 94 % -0.65 C
81 26-02-2016 06:40:00 0.2 C 94 % -0.65 C
82 26-02-2016 06:45:00 0.2 C 94 % -0.65 C
83 26-02-2016 06:50:00 0.2 C 94 % -0.65 C
84 26-02-2016 06:55:00 0.2 C 94 % -0.65 C
85 26-02-2016 07:00:00 0.2 C 94 % -0.65 C
86 26-02-2016 07:05:00 0.2 C 94 % -0.65 C
87 26-02-2016 07:10:00 0.2 C 94 % -0.65 C
88 26-02-2016 07:15:00 0.2 C 94 % -0.65 C
89 26-02-2016 07:20:00 0.2 C 94 % -0.65 C
90 26-02-2016 07:25:00 0.2 C 94 % -0.65 C
91 26-02-2016 07:30:00 0.2 C 94 % -0.65 C
92 26-02-2016 07:35:00 0.2 C 94 % -0.65 C
93 26-02-2016 07:40:00 0.2 C 94 % -0.65 C
94 26-02-2016 07:45:00 0.2 C 94 % -0.65 C
95 26-02-2016 07:50:00 0.2 C 94 % -0.65 C
96 26-02-2016 07:55:00 0.2 C 95 % -0.5 C
97 26-02-2016 08:00:00 0.3 C 95 % -0.4 C
98 26-02-2016 08:05:00 0.3 C 95 % -0.4 C
99 26-02-2016 08:10:00 0.4 C 95 % -0.31 C
100 26-02-2016 08:15:00 0.5 C 95 % -0.21 C
Sensor: Nr:Datum:Temp:Feuchte:Taupunkt:
Aussen-T/F 101 26-02-2016 08:20:00 0.6 C 95 % -0.11 C
102 26-02-2016 08:25:00 0.6 C 95 % -0.11 C
103 26-02-2016 08:30:00 0.7 C 95 % -0.01 C
104 26-02-2016 08:35:00 0.8 C 95 % 0.09 C
105 26-02-2016 08:40:00 0.8 C 95 % 0.09 C
106 26-02-2016 08:45:00 0.8 C 95 % 0.09 C
107 26-02-2016 08:50:00 0.9 C 95 % 0.19 C
108 26-02-2016 08:55:00 0.9 C 95 % 0.19 C
109 26-02-2016 09:00:00 1 C 95 % 0.29 C
110 26-02-2016 09:05:00 1.1 C 94 % 0.24 C
111 26-02-2016 09:10:00 1.2 C 94 % 0.34 C
112 26-02-2016 09:15:00 1.2 C 94 % 0.34 C
113 26-02-2016 09:20:00 1.3 C 94 % 0.44 C
114 26-02-2016 09:25:00 1.3 C 94 % 0.44 C
115 26-02-2016 09:30:00 1.4 C 94 % 0.54 C
116 26-02-2016 09:35:00 1.6 C 94 % 0.74 C
117 26-02-2016 09:40:00 1.6 C 94 % 0.74 C
118 26-02-2016 09:45:00 1.7 C 93 % 0.69 C
119 26-02-2016 09:50:00 1.8 C 93 % 0.79 C
120 26-02-2016 09:55:00 1.9 C 93 % 0.89 C
121 26-02-2016 10:00:00 2 C 92 % 0.84 C
122 26-02-2016 10:05:00 2.1 C 92 % 0.94 C
123 26-02-2016 10:10:00 2.3 C 91 % 0.99 C
124 26-02-2016 10:15:00 2.4 C 91 % 1.08 C
125 26-02-2016 10:20:00 2.5 C 90 % 1.03 C
Sensor: Nr:Datum:Temp:Feuchte:Taupunkt:
Aussen-T/F 126 26-02-2016 10:25:00 2.6 C 90 % 1.13 C
127 26-02-2016 10:30:00 2.7 C 90 % 1.23 C
128 26-02-2016 10:35:00 2.8 C 89 % 1.17 C
129 26-02-2016 10:40:00 2.9 C 88 % 1.11 C
130 26-02-2016 10:45:00 3.1 C 87 % 1.15 C
131 26-02-2016 10:50:00 3.2 C 86 % 1.09 C
132 26-02-2016 10:55:00 3.3 C 85 % 1.03 C
133 26-02-2016 11:00:00 3.4 C 85 % 1.12 C
134 26-02-2016 11:05:00 3.6 C 85 % 1.32 C
135 26-02-2016 11:10:00 3.7 C 83 % 1.09 C
136 26-02-2016 11:15:00 3.8 C 83 % 1.19 C
137 26-02-2016 11:20:00 3.9 C 82 % 1.12 C
138 26-02-2016 11:25:00 4.1 C 83 % 1.48 C
139 26-02-2016 11:30:00 4.3 C 82 % 1.51 C
140 26-02-2016 11:35:00 4.4 C 80 % 1.26 C
141 26-02-2016 11:40:00 4.4 C 79 % 1.09 C
142 26-02-2016 11:45:00 4.4 C 78 % 0.91 C
143 26-02-2016 11:50:00 4.4 C 76 % 0.55 C
144 26-02-2016 11:55:00 4.4 C 77 % 0.73 C
145 26-02-2016 12:00:00 4.4 C 75 % 0.37 C
146 26-02-2016 12:05:00 4.4 C 75 % 0.37 C
147 26-02-2016 12:10:00 4.5 C 75 % 0.46 C
148 26-02-2016 12:15:00 4.6 C 75 % 0.56 C
149 26-02-2016 12:20:00 4.6 C 75 % 0.56 C
150 26-02-2016 12:25:00 4.6 C 77 % 0.92 C
Sensor: Nr:Datum:Temp:Feuchte:Taupunkt:
Aussen-T/F 151 26-02-2016 12:30:00 4.7 C 77 % 1.02 C
152 26-02-2016 12:35:00 4.7 C 77 % 1.02 C
153 26-02-2016 12:40:00 4.7 C 76 % 0.84 C
154 26-02-2016 12:45:00 4.6 C 77 % 0.92 C
155 26-02-2016 12:50:00 4.6 C 76 % 0.74 C
156 26-02-2016 12:55:00 4.6 C 78 % 1.1 C
157 26-02-2016 13:00:00 4.6 C 76 % 0.74 C
158 26-02-2016 13:05:00 4.7 C 77 % 1.02 C
159 26-02-2016 13:10:00 4.7 C 77 % 1.02 C
160 26-02-2016 13:15:00 4.7 C 76 % 0.84 C
161 26-02-2016 13:20:00 4.7 C 77 % 1.02 C
162 26-02-2016 13:25:00 4.7 C 76 % 0.84 C
163 26-02-2016 13:30:00 4.7 C 77 % 1.02 C
164 26-02-2016 13:35:00 4.8 C 76 % 0.94 C
165 26-02-2016 13:40:00 4.8 C 76 % 0.94 C
166 26-02-2016 13:45:00 4.9 C 76 % 1.03 C
167 26-02-2016 13:50:00 4.9 C 76 % 1.03 C
168 26-02-2016 13:55:00 4.9 C 75 % 0.85 C
169 26-02-2016 14:00:00 4.9 C 75 % 0.85 C
170 26-02-2016 14:05:00 4.9 C 75 % 0.85 C
171 26-02-2016 14:10:00 5 C 75 % 0.95 C
172 26-02-2016 14:15:00 5 C 75 % 0.95 C
173 26-02-2016 14:20:00 5 C 75 % 0.95 C
174 26-02-2016 14:25:00 5 C 74 % 0.76 C
175 26-02-2016 14:30:00 5.1 C 72 % 0.48 C
Sensor: Nr:Datum:Temp:Feuchte:Taupunkt:
Aussen-T/F 176 26-02-2016 14:35:00 5.1 C 74 % 0.86 C
177 26-02-2016 14:40:00 5.1 C 74 % 0.86 C
178 26-02-2016 14:45:00 5.1 C 73 % 0.67 C
179 26-02-2016 14:50:00 5.1 C 73 % 0.67 C
180 26-02-2016 14:55:00 5.1 C 73 % 0.67 C
181 26-02-2016 15:00:00 5.1 C 73 % 0.67 C
182 26-02-2016 15:05:00 5.1 C 73 % 0.67 C
183 26-02-2016 15:10:00 5.1 C 72 % 0.48 C
184 26-02-2016 15:15:00 5.2 C 72 % 0.58 C
185 26-02-2016 15:20:00 5.2 C 69 % -0.01 C
186 26-02-2016 15:25:00 5.2 C 68 % -0.21 C
187 26-02-2016 15:30:00 5.2 C 68 % -0.21 C
188 26-02-2016 15:35:00 5.2 C 68 % -0.21 C
189 26-02-2016 15:40:00 5.2 C 68 % -0.21 C
190 26-02-2016 15:45:00 5.2 C 68 % -0.21 C
191 26-02-2016 15:50:00 5.2 C 68 % -0.21 C
192 26-02-2016 15:55:00 5.2 C 70 % 0.19 C
193 26-02-2016 16:00:00 5.1 C 72 % 0.48 C
194 26-02-2016 16:05:00 5.1 C 72 % 0.48 C
195 26-02-2016 16:10:00 5 C 72 % 0.38 C
196 26-02-2016 16:15:00 4.9 C 73 % 0.48 C
197 26-02-2016 16:20:00 4.9 C 74 % 0.67 C
198 26-02-2016 16:25:00 4.8 C 73 % 0.38 C
199 26-02-2016 16:30:00 4.8 C 73 % 0.38 C
200 26-02-2016 16:35:00 4.7 C 73 % 0.28 C
Sensor: Nr:Datum:Temp:Feuchte:Taupunkt:
Aussen-T/F 201 26-02-2016 16:40:00 4.7 C 74 % 0.47 C
202 26-02-2016 16:45:00 4.7 C 76 % 0.84 C
203 26-02-2016 16:50:00 4.7 C 76 % 0.84 C
204 26-02-2016 16:55:00 4.6 C 75 % 0.56 C
205 26-02-2016 17:00:00 4.6 C 73 % 0.19 C
206 26-02-2016 17:05:00 4.6 C 74 % 0.38 C
207 26-02-2016 17:10:00 4.6 C 74 % 0.38 C
208 26-02-2016 17:15:00 4.6 C 74 % 0.38 C
209 26-02-2016 17:20:00 4.5 C 75 % 0.46 C
210 26-02-2016 17:25:00 4.5 C 74 % 0.28 C
211 26-02-2016 17:30:00 4.4 C 77 % 0.73 C
212 26-02-2016 17:35:00 4.4 C 76 % 0.55 C
213 26-02-2016 17:40:00 4.3 C 76 % 0.45 C
214 26-02-2016 17:45:00 4.2 C 74 % -0.01 C
215 26-02-2016 17:50:00 4.2 C 73 % -0.2 C
216 26-02-2016 17:55:00 4.1 C 75 % 0.08 C
217 26-02-2016 18:00:00 4.1 C 77 % 0.44 C
218 26-02-2016 18:05:00 3.9 C 75 % -0.12 C
219 26-02-2016 18:10:00 3.8 C 76 % -0.03 C
220 26-02-2016 18:15:00 3.8 C 77 % 0.15 C
221 26-02-2016 18:20:00 3.7 C 78 % 0.23 C
222 26-02-2016 18:25:00 3.6 C 79 % 0.31 C
223 26-02-2016 18:30:00 3.4 C 80 % 0.29 C
224 26-02-2016 18:35:00 3.2 C 79 % -0.08 C
225 26-02-2016 18:40:00 3 C 80 % -0.1 C
Sensor: Nr:Datum:Temp:Feuchte:Taupunkt:
Aussen-T/F 226 26-02-2016 18:45:00 2.8 C 80 % -0.3 C
227 26-02-2016 18:50:00 2.6 C 80 % -0.49 C
228 26-02-2016 18:55:00 2.3 C 81 % -0.62 C
229 26-02-2016 19:00:00 2.1 C 81 % -0.81 C
230 26-02-2016 19:05:00 1.9 C 82 % -0.84 C
231 26-02-2016 19:10:00 1.8 C 84 % -0.61 C
232 26-02-2016 19:15:00 1.8 C 84 % -0.61 C
233 26-02-2016 19:20:00 1.8 C 85 % -0.45 C
234 26-02-2016 19:25:00 1.8 C 85 % -0.45 C
235 26-02-2016 19:30:00 1.9 C 86 % -0.19 C
236 26-02-2016 19:35:00 1.9 C 85 % -0.35 C
237 26-02-2016 19:40:00 1.9 C 85 % -0.35 C
238 26-02-2016 19:45:00 1.9 C 85 % -0.35 C
239 26-02-2016 19:50:00 1.8 C 85 % -0.45 C
240 26-02-2016 19:55:00 1.7 C 85 % -0.54 C
241 26-02-2016 20:00:00 1.7 C 85 % -0.54 C
242 26-02-2016 20:05:00 1.6 C 86 % -0.48 C
243 26-02-2016 20:10:00 1.6 C 86 % -0.48 C
244 26-02-2016 20:15:00 1.6 C 87 % -0.32 C
245 26-02-2016 20:20:00 1.6 C 87 % -0.32 C
246 26-02-2016 20:25:00 1.7 C 87 % -0.23 C
247 26-02-2016 20:30:00 1.7 C 87 % -0.23 C
248 26-02-2016 20:35:00 1.8 C 87 % -0.13 C
249 26-02-2016 20:40:00 1.8 C 87 % -0.13 C
250 26-02-2016 20:45:00 1.8 C 87 % -0.13 C
Sensor: Nr:Datum:Temp:Feuchte:Taupunkt:
Aussen-T/F 251 26-02-2016 20:50:00 1.9 C 87 % -0.03 C
252 26-02-2016 20:55:00 1.9 C 87 % -0.03 C
253 26-02-2016 21:00:00 2 C 86 % -0.09 C
254 26-02-2016 21:05:00 2 C 86 % -0.09 C
255 26-02-2016 21:10:00 2 C 86 % -0.09 C
256 26-02-2016 21:15:00 2 C 86 % -0.09 C
257 26-02-2016 21:20:00 2.1 C 86 % 0.01 C
258 26-02-2016 21:25:00 2 C 86 % -0.09 C
259 26-02-2016 21:30:00 2 C 86 % -0.09 C
260 26-02-2016 21:35:00 2 C 86 % -0.09 C
261 26-02-2016 21:40:00 2 C 85 % -0.25 C
262 26-02-2016 21:45:00 2 C 86 % -0.09 C
263 26-02-2016 21:50:00 1.9 C 86 % -0.19 C
264 26-02-2016 21:55:00 1.9 C 86 % -0.19 C
265 26-02-2016 22:00:00 1.9 C 86 % -0.19 C
266 26-02-2016 22:05:00 1.9 C 86 % -0.19 C
267 26-02-2016 22:10:00 1.9 C 85 % -0.35 C
268 26-02-2016 22:15:00 1.9 C 85 % -0.35 C
269 26-02-2016 22:20:00 1.8 C 84 % -0.61 C
270 26-02-2016 22:25:00 1.8 C 84 % -0.61 C
271 26-02-2016 22:30:00 1.7 C 84 % -0.71 C
272 26-02-2016 22:35:00 1.7 C 84 % -0.71 C
273 26-02-2016 22:40:00 1.7 C 85 % -0.54 C
274 26-02-2016 22:45:00 1.7 C 85 % -0.54 C
275 26-02-2016 22:50:00 1.7 C 85 % -0.54 C
Sensor: Nr:Datum:Temp:Feuchte:Taupunkt:
Aussen-T/F 276 26-02-2016 22:55:00 1.7 C 85 % -0.54 C
277 26-02-2016 23:00:00 1.7 C 85 % -0.54 C
278 26-02-2016 23:05:00 1.7 C 84 % -0.71 C
279 26-02-2016 23:10:00 1.7 C 84 % -0.71 C
280 26-02-2016 23:15:00 1.7 C 84 % -0.71 C
281 26-02-2016 23:20:00 1.7 C 83 % -0.87 C
282 26-02-2016 23:25:00 1.8 C 84 % -0.61 C
283 26-02-2016 23:30:00 1.8 C 84 % -0.61 C
284 26-02-2016 23:35:00 1.8 C 84 % -0.61 C
285 26-02-2016 23:40:00 1.7 C 85 % -0.54 C
286 26-02-2016 23:45:00 1.7 C 84 % -0.71 C
287 26-02-2016 23:50:00 1.7 C 84 % -0.71 C
288 26-02-2016 23:55:00 1.7 C 84 % -0.71 C

Legende:
   Min
   Max


Maximal/Minimal-Werte vom 26.02.2016 - 26.02.2016

Sensor Min Max Avg
Temp
(Aussen-T/F)
-0.1 °C
26-02-2016  05:50:00
5.2 °C
26-02-2016  15:15:00
2.37 °C
Feuchte
(Aussen-T/F)
68 %
26-02-2016  15:25:00
95 %
26-02-2016  07:55:00
85.49 %
Taupunkt
(Aussen-T/F)
-1.09 C
26-02-2016  05:50:00
1.51 C
26-02-2016  11:30:00
0.12 C

Die Daten stammen von einer Davis Vantage Pro 2 Wetter-Station und werden unter Linux mit der Software wview2wettercgi und aufbereitet. Alle Angaben erfolgen ohne Gewähr für ihre Vollständigkeit oder Richtigkeit.
Kontakt: Rainer Krienke krienke@uni-koblenz.de . Meine Webseiten an der Uni Koblenz oder privat.
Version: $Revision: 0.78 $